Time;durP1;ratioP1;P1;durP2;ratioP2;P2;SDS_P1;SDS_P2;PMS_P1;PMS_P2;Temp;Humidity;BMP_temperature;BMP_pressure;BME280_temperature;BME280_humidity;BME280_pressure;Samples;Min_cycle;Max_cycle;Signal;HPM_P1;HPM_P2
2022/12/16 00:00:38;;;;;;;60.17;24.60;;;-6.30;99.90;;;;;;5051957;28;20049;-53
2022/12/16 00:03:03;;;;;;;66.63;26.90;;;-6.30;99.90;;;;;;5052957;28;20436;-52
2022/12/16 00:05:30;;;;;;;63.87;25.03;;;-6.40;99.90;;;;;;5052634;28;20124;-55
2022/12/16 00:07:55;;;;;;;68.63;25.67;;;-6.30;99.90;;;;;;5052523;28;20446;-53
2022/12/16 00:10:22;;;;;;;65.07;24.70;;;-6.40;99.90;;;;;;5051735;28;20489;-52
2022/12/16 00:12:48;;;;;;;66.47;24.60;;;-6.50;99.90;;;;;;5052318;28;20527;-54
2022/12/16 00:15:13;;;;;;;73.23;24.70;;;-6.50;99.90;;;;;;5052652;28;20447;-53
2022/12/16 00:17:39;;;;;;;63.57;24.03;;;-6.60;99.90;;;;;;5052145;28;20021;-53
2022/12/16 00:20:05;;;;;;;62.40;23.23;;;-6.70;99.90;;;;;;5051937;28;20029;-53
2022/12/16 00:22:31;;;;;;;64.53;24.60;;;-6.70;99.90;;;;;;5052333;28;20029;-54
2022/12/16 00:24:57;;;;;;;64.93;22.90;;;-6.70;99.90;;;;;;5052067;28;20443;-52
2022/12/16 00:27:23;;;;;;;61.23;23.80;;;-6.70;99.90;;;;;;5051980;28;20039;-56
2022/12/16 00:29:48;;;;;;;65.57;24.47;;;-6.70;99.90;;;;;;5051619;28;20167;-54
2022/12/16 00:32:14;;;;;;;64.03;24.00;;;-6.60;99.90;;;;;;5052205;28;20072;-52
2022/12/16 00:34:40;;;;;;;58.20;23.27;;;-6.70;99.90;;;;;;5052423;28;20032;-52
2022/12/16 00:37:05;;;;;;;60.77;23.20;;;-6.70;99.90;;;;;;5051849;28;20508;-51
2022/12/16 00:39:31;;;;;;;61.43;23.33;;;-6.70;99.90;;;;;;5051757;28;20024;-54
2022/12/16 00:41:57;;;;;;;61.07;23.20;;;-6.80;99.90;;;;;;5051727;28;20048;-53
2022/12/16 00:44:22;;;;;;;64.47;23.77;;;-6.80;99.90;;;;;;5051963;28;20021;-54
2022/12/16 00:46:48;;;;;;;62.87;23.37;;;-6.80;99.90;;;;;;5051447;28;20017;-54
2022/12/16 00:49:14;;;;;;;63.63;24.10;;;-6.90;99.90;;;;;;5051517;28;20029;-53
2022/12/16 00:51:40;;;;;;;61.93;23.93;;;-6.90;99.90;;;;;;5051461;28;20029;-52
2022/12/16 00:54:05;;;;;;;62.90;23.50;;;-6.80;99.90;;;;;;5051746;28;20060;-56
2022/12/16 00:56:31;;;;;;;65.30;23.03;;;-6.80;99.90;;;;;;5051353;28;20119;-52
2022/12/16 00:58:57;;;;;;;64.87;24.33;;;-6.80;99.90;;;;;;5051288;28;20037;-53
2022/12/16 01:01:22;;;;;;;63.90;22.40;;;-6.80;99.90;;;;;;5051599;28;20029;-55
2022/12/16 01:03:48;;;;;;;65.00;24.27;;;-6.70;99.90;;;;;;5051547;28;20444;-55
2022/12/16 01:06:16;;;;;;;60.67;23.60;;;-6.80;99.90;;;;;;5051565;28;20485;-54
2022/12/16 01:08:47;;;;;;;62.83;23.43;;;-6.80;99.90;;;;;;5049713;28;20096;-56
2022/12/16 01:11:15;;;;;;;67.47;22.87;;;-6.70;99.90;;;;;;5051270;28;20530;-54
2022/12/16 01:13:41;;;;;;;65.63;24.83;;;-6.70;99.90;;;;;;5050361;28;20879;-54
2022/12/16 01:16:06;;;;;;;62.97;23.27;;;-6.80;99.90;;;;;;5051408;28;20427;-55
2022/12/16 01:18:32;;;;;;;62.93;23.03;;;-6.80;99.90;;;;;;5050654;28;20107;-54
2022/12/16 01:21:02;;;;;;;61.63;24.43;;;-6.80;99.90;;;;;;5051054;28;20036;-56
2022/12/16 01:23:28;;;;;;;65.00;24.10;;;-6.80;99.90;;;;;;5050923;28;20453;-53
2022/12/16 01:25:58;;;;;;;64.80;23.67;;;-6.90;99.90;;;;;;5051208;28;20466;-54
2022/12/16 01:28:24;;;;;;;;;;;-6.90;99.90;;;;;;5051024;28;20029;-52
2022/12/16 01:30:56;;;;;;;63.27;21.77;;;-6.90;99.90;;;;;;5050512;28;19919;-54
2022/12/16 01:33:22;;;;;;;63.57;24.30;;;-6.90;99.90;;;;;;5050773;28;20456;-55
2022/12/16 01:35:48;;;;;;;61.27;23.57;;;-6.90;99.90;;;;;;5050823;28;20435;-53
2022/12/16 01:38:14;;;;;;;59.37;23.27;;;-6.90;99.90;;;;;;5050734;28;20522;-53
2022/12/16 01:40:40;;;;;;;62.77;22.23;;;-6.90;99.90;;;;;;5050339;28;20028;-53
2022/12/16 01:43:12;;;;;;;60.50;22.90;;;-6.90;99.90;;;;;;5050781;28;20446;-53
2022/12/16 01:45:38;;;;;;;58.30;22.90;;;-7.10;99.90;;;;;;5050707;28;20078;-56
2022/12/16 01:48:25;;;;;;;60.87;23.57;;;-7.20;99.90;;;;;;5050400;28;20879;-54
2022/12/16 01:50:58;;;;;;;67.23;22.90;;;-7.10;99.90;;;;;;5050180;28;20033;-54
2022/12/16 01:53:23;;;;;;;68.83;25.20;;;-7.00;99.90;;;;;;5050827;28;20582;-55
2022/12/16 01:55:51;;;;;;;61.90;22.90;;;-7.10;99.90;;;;;;5050510;28;20826;-54
2022/12/16 01:58:26;;;;;;;59.67;22.23;;;-7.00;99.90;;;;;;5050394;28;20029;-56
2022/12/16 02:00:52;;;;;;;64.97;24.33;;;-7.00;99.90;;;;;;5049938;28;20442;-52
2022/12/16 02:03:18;;;;;;;68.47;25.17;;;-7.00;99.90;;;;;;5050746;28;20435;-54
2022/12/16 02:05:46;;;;;;;64.93;23.93;;;-7.00;99.90;;;;;;5050522;28;20530;-54
2022/12/16 02:08:14;;;;;;;66.53;23.47;;;-7.00;99.90;;;;;;5050225;28;20437;-56
2022/12/16 02:10:43;;;;;;;64.60;23.20;;;-6.90;99.90;;;;;;5050516;28;20478;-54
2022/12/16 02:13:37;;;;;;;59.30;23.07;;;-6.90;99.90;;;;;;5050287;28;20466;-54
2022/12/16 02:16:24;;;;;;;65.60;22.77;;;-6.90;99.90;;;;;;5050271;28;20793;-52
2022/12/16 02:19:13;;;;;;;62.23;23.97;;;-6.90;99.90;;;;;;5050083;28;20427;-51
2022/12/16 02:21:57;;;;;;;60.28;22.80;;;-7.00;99.90;;;;;;5048329;28;20434;-56
2022/12/16 02:24:50;;;;;;;59.03;22.37;;;-6.90;99.90;;;;;;5047287;28;20036;-49
2022/12/16 02:27:40;;;;;;;59.50;22.43;;;-7.00;99.90;;;;;;5049465;28;21001;-53
2022/12/16 02:30:38;;;;;;;64.63;23.57;;;-6.90;99.90;;;;;;5064381;22;20552;-58
2022/12/16 02:33:29;;;;;;;60.37;23.20;;;-6.90;99.90;;;;;;5044142;28;20472;-57
2022/12/16 02:36:06;;;;;;;63.70;23.63;;;-6.80;99.90;;;;;;5045712;28;20852;-58
2022/12/16 02:38:55;;;;;;;63.57;23.90;;;-6.80;99.90;;;;;;5029976;28;20430;-59
2022/12/16 02:41:36;;;;;;;61.50;23.33;;;-6.70;99.90;;;;;;5030339;28;20458;-58
2022/12/16 02:44:05;;;;;;;64.70;24.33;;;-6.70;99.90;;;;;;5029314;28;20034;-59
2022/12/16 02:46:36;;;;;;;60.78;23.02;;;-6.60;99.90;;;;;;5030196;28;20458;-59
2022/12/16 02:49:25;;;;;;;61.07;23.20;;;-6.60;99.90;;;;;;5030007;28;20034;-58
2022/12/16 02:51:51;;;;;;;64.87;23.70;;;-6.50;99.90;;;;;;5030288;28;20475;-59
2022/12/16 02:54:17;;;;;;;64.83;24.57;;;-6.50;99.90;;;;;;5030332;28;20436;-58
2022/12/16 02:56:57;;;;;;;64.47;24.40;;;-6.60;99.90;;;;;;5030089;28;20432;-58
2022/12/16 02:59:44;;;;;;;68.13;24.37;;;-6.60;99.90;;;;;;5029964;28;20428;-59
2022/12/16 03:02:24;;;;;;;68.87;24.03;;;-6.60;99.90;;;;;;5030333;28;20452;-58
2022/12/16 03:05:28;;;;;;;67.03;23.77;;;-6.60;99.90;;;;;;5030264;28;20627;-58
2022/12/16 03:07:57;;;;;;;66.23;23.73;;;-6.70;99.90;;;;;;5029940;28;20420;-58
2022/12/16 03:10:29;;;;;;;54.08;18.90;;;-6.70;99.90;;;;;;5030032;28;20440;-59
2022/12/16 03:12:58;;;;;;;58.83;23.27;;;-6.70;99.90;;;;;;5029966;28;20053;-59
2022/12/16 03:15:27;;;;;;;66.15;23.95;;;-6.80;99.90;;;;;;5030039;28;20416;-59
2022/12/16 03:17:54;;;;;;;65.10;25.00;;;-6.70;99.90;;;;;;5029739;28;20478;-58
2022/12/16 03:20:46;;;;;;;61.77;23.10;;;-6.80;99.90;;;;;;5029645;28;20110;-58
2022/12/16 03:23:21;;;;;;;66.17;24.20;;;-6.80;99.90;;;;;;5029973;28;20435;-59
2022/12/16 03:25:49;;;;;;;68.13;24.13;;;-6.70;99.90;;;;;;5030117;28;20427;-57
2022/12/16 03:28:42;;;;;;;57.87;24.03;;;-6.70;99.90;;;;;;5029703;28;20436;-58
2022/12/16 03:31:16;;;;;;;60.30;22.50;;;-6.60;99.90;;;;;;5029701;28;20840;-58
2022/12/16 03:33:51;;;;;;;68.00;23.20;;;-6.60;99.90;;;;;;5029899;28;20801;-59
2022/12/16 03:36:23;;;;;;;67.20;25.03;;;-6.50;99.90;;;;;;5031176;28;20424;-59
2022/12/16 03:38:50;;;;;;;64.97;23.47;;;-6.50;99.90;;;;;;5033168;28;20511;-59
2022/12/16 03:41:18;;;;;;;68.33;24.97;;;-6.50;99.90;;;;;;5033179;28;20534;-58
2022/12/16 03:43:44;;;;;;;65.33;24.63;;;-6.50;99.90;;;;;;5033497;28;20428;-59
2022/12/16 03:46:11;;;;;;;77.90;25.10;;;-6.50;99.90;;;;;;5033353;28;20420;-58
2022/12/16 03:48:45;;;;;;;67.67;24.93;;;-6.50;99.90;;;;;;5032830;28;20456;-59
2022/12/16 03:51:10;;;;;;;65.37;25.23;;;-6.50;99.90;;;;;;5033110;28;20885;-59
2022/12/16 03:53:36;;;;;;;66.53;24.70;;;-6.50;99.90;;;;;;5032968;28;20555;-59
2022/12/16 03:56:02;;;;;;;65.33;24.83;;;-6.50;99.90;;;;;;5033082;28;20091;-58
2022/12/16 03:58:28;;;;;;;65.07;24.80;;;-6.50;99.90;;;;;;5032667;28;20049;-59
2022/12/16 04:00:53;;;;;;;66.67;25.13;;;-6.50;99.90;;;;;;5032873;28;20030;-58
2022/12/16 04:03:21;;;;;;;68.30;26.77;;;-6.50;99.90;;;;;;5032959;28;20442;-58
2022/12/16 04:05:47;;;;;;;68.70;25.10;;;-6.50;99.90;;;;;;5031676;28;20486;-58
2022/12/16 04:08:13;;;;;;;75.73;25.57;;;-6.50;99.90;;;;;;5032555;28;20444;-58
2022/12/16 04:25:26;;;;;;;68.87;24.87;;;-6.60;99.90;;;;;;5032490;28;20585;-58
2022/12/16 04:27:52;;;;;;;63.75;25.13;;;-6.70;99.90;;;;;;5032430;28;20447;-59
2022/12/16 04:30:19;;;;;;;61.63;24.87;;;-6.70;99.90;;;;;;5031958;28;20045;-57
